sensor_id;sensor_type;location;lat;lon;timestamp;pressure;altitude;pressure_sealevel;temperature;humidity
79203;BME280;68630;42.748;23.278;2023-10-13T00:00:32;96032.19;;;9.54;70.53
79203;BME280;68630;42.748;23.278;2023-10-13T00:03:03;96029.95;;;9.67;69.87
79203;BME280;68630;42.748;23.278;2023-10-13T00:05:33;96019.23;;;9.74;69.71
79203;BME280;68630;42.748;23.278;2023-10-13T00:08:01;96029.37;;;9.74;69.57
79203;BME280;68630;42.748;23.278;2023-10-13T00:10:31;96028.43;;;9.75;69.72
79203;BME280;68630;42.748;23.278;2023-10-13T00:13:01;96021.69;;;9.59;70.53
79203;BME280;68630;42.748;23.278;2023-10-13T00:15:43;96020.73;;;9.60;70.59
79203;BME280;68630;42.748;23.278;2023-10-13T00:18:25;96012.45;;;9.70;70.12
79203;BME280;68630;42.748;23.278;2023-10-13T00:20:57;96015.12;;;9.70;70.18
79203;BME280;68630;42.748;23.278;2023-10-13T00:23:24;96003.99;;;9.70;70.00
79203;BME280;68630;42.748;23.278;2023-10-13T00:25:54;96010.66;;;9.76;69.62
79203;BME280;68630;42.748;23.278;2023-10-13T00:28:27;96008.38;;;9.77;69.77
79203;BME280;68630;42.748;23.278;2023-10-13T00:30:56;96007.65;;;9.75;69.60
79203;BME280;68630;42.748;23.278;2023-10-13T00:33:27;96014.25;;;9.69;69.80
79203;BME280;68630;42.748;23.278;2023-10-13T00:35:54;96005.83;;;9.75;69.63
79203;BME280;68630;42.748;23.278;2023-10-13T00:38:24;96014.80;;;9.80;69.28
79203;BME280;68630;42.748;23.278;2023-10-13T00:40:53;96015.25;;;9.74;69.47
79203;BME280;68630;42.748;23.278;2023-10-13T00:43:22;96017.52;;;9.73;69.46
79203;BME280;68630;42.748;23.278;2023-10-13T00:45:53;96015.73;;;9.73;69.37
79203;BME280;68630;42.748;23.278;2023-10-13T00:48:34;96012.56;;;9.68;69.63
79203;BME280;68630;42.748;23.278;2023-10-13T00:51:05;96013.78;;;9.70;69.80
79203;BME280;68630;42.748;23.278;2023-10-13T00:53:40;96012.31;;;9.71;69.44
79203;BME280;68630;42.748;23.278;2023-10-13T00:56:11;96016.59;;;9.80;69.20
79203;BME280;68630;42.748;23.278;2023-10-13T00:58:50;96025.28;;;9.76;69.20
79203;BME280;68630;42.748;23.278;2023-10-13T01:01:19;96017.72;;;9.64;68.98
79203;BME280;68630;42.748;23.278;2023-10-13T01:03:55;96022.53;;;9.59;68.76
79203;BME280;68630;42.748;23.278;2023-10-13T01:06:25;96018.14;;;9.52;68.79
79203;BME280;68630;42.748;23.278;2023-10-13T01:09:02;96019.55;;;9.45;68.29
79203;BME280;68630;42.748;23.278;2023-10-13T01:11:49;96025.19;;;9.41;68.44
79203;BME280;68630;42.748;23.278;2023-10-13T01:14:21;96018.39;;;9.31;68.37
79203;BME280;68630;42.748;23.278;2023-10-13T01:16:51;96017.75;;;9.09;68.73
79203;BME280;68630;42.748;23.278;2023-10-13T01:19:19;96017.53;;;9.12;68.57
79203;BME280;68630;42.748;23.278;2023-10-13T01:21:48;96017.12;;;9.05;68.66
79203;BME280;68630;42.748;23.278;2023-10-13T01:24:16;96018.06;;;9.04;68.60
79203;BME280;68630;42.748;23.278;2023-10-13T01:26:45;96015.69;;;9.07;68.77
79203;BME280;68630;42.748;23.278;2023-10-13T01:29:14;96019.49;;;9.03;69.28
79203;BME280;68630;42.748;23.278;2023-10-13T01:31:45;96021.52;;;8.99;69.61
79203;BME280;68630;42.748;23.278;2023-10-13T01:34:18;96035.35;;;8.78;70.37
79203;BME280;68630;42.748;23.278;2023-10-13T01:36:50;96031.69;;;8.87;70.67
79203;BME280;68630;42.748;23.278;2023-10-13T01:45:00;96028.89;;;9.01;70.68
79203;BME280;68630;42.748;23.278;2023-10-13T01:52:40;96018.86;;;8.99;70.61
79203;BME280;68630;42.748;23.278;2023-10-13T01:55:08;96021.45;;;9.06;70.54
79203;BME280;68630;42.748;23.278;2023-10-13T01:57:43;96025.44;;;9.06;69.76
79203;BME280;68630;42.748;23.278;2023-10-13T02:18:06;96020.79;;;8.97;69.20
79203;BME280;68630;42.748;23.278;2023-10-13T02:20:35;96014.15;;;8.97;69.13
79203;BME280;68630;42.748;23.278;2023-10-13T02:23:05;96020.89;;;8.95;69.00
79203;BME280;68630;42.748;23.278;2023-10-13T02:25:35;96013.48;;;8.49;71.00
79203;BME280;68630;42.748;23.278;2023-10-13T02:28:05;96012.48;;;8.57;71.78
79203;BME280;68630;42.748;23.278;2023-10-13T02:30:45;96014.83;;;8.62;71.91
79203;BME280;68630;42.748;23.278;2023-10-13T02:33:12;96011.12;;;8.52;72.31
79203;BME280;68630;42.748;23.278;2023-10-13T02:35:41;96019.51;;;8.38;73.02
79203;BME280;68630;42.748;23.278;2023-10-13T02:40:51;96029.53;;;8.40;73.66
79203;BME280;68630;42.748;23.278;2023-10-13T02:48:56;96029.73;;;8.37;71.35
79203;BME280;68630;42.748;23.278;2023-10-13T02:51:26;96031.75;;;8.34;71.32
79203;BME280;68630;42.748;23.278;2023-10-13T03:01:47;96028.66;;;8.27;71.13
79203;BME280;68630;42.748;23.278;2023-10-13T03:04:23;96028.13;;;8.22;71.15
79203;BME280;68630;42.748;23.278;2023-10-13T03:06:49;96039.03;;;8.17;71.55
79203;BME280;68630;42.748;23.278;2023-10-13T03:09:19;96039.17;;;8.09;71.89
79203;BME280;68630;42.748;23.278;2023-10-13T03:11:52;96047.67;;;8.14;71.50
79203;BME280;68630;42.748;23.278;2023-10-13T03:14:22;96042.38;;;8.14;71.33
79203;BME280;68630;42.748;23.278;2023-10-13T03:22:19;96041.38;;;8.09;70.58
79203;BME280;68630;42.748;23.278;2023-10-13T03:24:54;96035.64;;;8.15;70.34
79203;BME280;68630;42.748;23.278;2023-10-13T03:27:20;96043.88;;;8.18;70.57
79203;BME280;68630;42.748;23.278;2023-10-13T03:37:38;96043.55;;;8.10;70.00
79203;BME280;68630;42.748;23.278;2023-10-13T03:40:11;96039.46;;;8.11;69.94
79203;BME280;68630;42.748;23.278;2023-10-13T03:42:56;96035.20;;;8.09;69.95
79203;BME280;68630;42.748;23.278;2023-10-13T03:45:41;96023.50;;;8.05;70.11
79203;BME280;68630;42.748;23.278;2023-10-13T03:48:12;96022.37;;;8.02;70.06
79203;BME280;68630;42.748;23.278;2023-10-13T03:50:59;96015.36;;;8.01;70.25
79203;BME280;68630;42.748;23.278;2023-10-13T03:56:28;95974.41;;;7.73;70.84
79203;BME280;68630;42.748;23.278;2023-10-13T03:59:13;96017.42;;;8.03;70.82
79203;BME280;68630;42.748;23.278;2023-10-13T04:01:46;96021.05;;;8.02;71.19
79203;BME280;68630;42.748;23.278;2023-10-13T04:04:17;96018.28;;;7.84;71.78
79203;BME280;68630;42.748;23.278;2023-10-13T04:07:03;96019.03;;;7.86;71.79
79203;BME280;68630;42.748;23.278;2023-10-13T04:09:39;96013.63;;;7.87;71.91
79203;BME280;68630;42.748;23.278;2023-10-13T04:12:19;96014.76;;;7.91;71.68
79203;BME280;68630;42.748;23.278;2023-10-13T04:15:05;96016.58;;;7.83;72.09
79203;BME280;68630;42.748;23.278;2023-10-13T04:17:34;96014.95;;;7.87;71.66
79203;BME280;68630;42.748;23.278;2023-10-13T04:20:06;96014.27;;;7.91;71.53
79203;BME280;68630;42.748;23.278;2023-10-13T04:22:40;96014.66;;;7.92;71.39
79203;BME280;68630;42.748;23.278;2023-10-13T04:25:27;96019.43;;;8.00;71.50
79203;BME280;68630;42.748;23.278;2023-10-13T04:28:12;96030.08;;;8.13;73.81
79203;BME280;68630;42.748;23.278;2023-10-13T04:30:42;96025.91;;;8.16;74.53
79203;BME280;68630;42.748;23.278;2023-10-13T04:33:28;96026.98;;;8.26;75.25
79203;BME280;68630;42.748;23.278;2023-10-13T04:36:08;96032.59;;;8.21;75.08
79203;BME280;68630;42.748;23.278;2023-10-13T04:38:58;96025.66;;;8.26;74.67
79203;BME280;68630;42.748;23.278;2023-10-13T04:44:05;96042.91;;;8.19;74.24
79203;BME280;68630;42.748;23.278;2023-10-13T04:46:37;96047.52;;;8.10;74.40
79203;BME280;68630;42.748;23.278;2023-10-13T04:49:08;96053.87;;;7.87;73.28
79203;BME280;68630;42.748;23.278;2023-10-13T04:51:40;96051.73;;;7.99;72.98
79203;BME280;68630;42.748;23.278;2023-10-13T04:54:18;96050.17;;;8.10;72.93
79203;BME280;68630;42.748;23.278;2023-10-13T04:56:47;96050.75;;;8.08;71.31
79203;BME280;68630;42.748;23.278;2023-10-13T04:59:36;96057.50;;;8.19;70.42
79203;BME280;68630;42.748;23.278;2023-10-13T05:02:08;96059.21;;;8.20;70.20
79203;BME280;68630;42.748;23.278;2023-10-13T05:04:53;96070.08;;;8.22;70.16
79203;BME280;68630;42.748;23.278;2023-10-13T05:07:39;96067.41;;;8.30;70.08
79203;BME280;68630;42.748;23.278;2023-10-13T05:10:24;96073.71;;;8.34;70.39
79203;BME280;68630;42.748;23.278;2023-10-13T05:13:09;96073.68;;;8.49;70.82
79203;BME280;68630;42.748;23.278;2023-10-13T05:15:56;96083.84;;;8.62;69.87
79203;BME280;68630;42.748;23.278;2023-10-13T06:05:38;96114.75;;;10.91;65.69
79203;BME280;68630;42.748;23.278;2023-10-13T06:08:56;96107.63;;;11.08;65.79
79203;BME280;68630;42.748;23.278;2023-10-13T06:16:37;96109.95;;;11.35;65.77
79203;BME280;68630;42.748;23.278;2023-10-13T06:19:23;96126.19;;;11.60;64.71
79203;BME280;68630;42.748;23.278;2023-10-13T06:22:22;96130.31;;;11.93;63.51
79203;BME280;68630;42.748;23.278;2023-10-13T06:30:26;96125.57;;;17.17;49.70
79203;BME280;68630;42.748;23.278;2023-10-13T06:32:53;96134.44;;;18.98;45.26
79203;BME280;68630;42.748;23.278;2023-10-13T06:35:25;96132.56;;;19.43;43.32
79203;BME280;68630;42.748;23.278;2023-10-13T06:40:30;96121.40;;;21.96;38.00
79203;BME280;68630;42.748;23.278;2023-10-13T06:43:05;96129.63;;;22.02;37.51
79203;BME280;68630;42.748;23.278;2023-10-13T06:45:42;96132.97;;;21.89;38.08
79203;BME280;68630;42.748;23.278;2023-10-13T06:48:11;96134.13;;;23.69;34.89
79203;BME280;68630;42.748;23.278;2023-10-13T06:50:51;96134.13;;;23.69;34.89
79203;BME280;68630;42.748;23.278;2023-10-13T06:53:19;96127.21;;;25.22;32.41
79203;BME280;68630;42.748;23.278;2023-10-13T06:55:49;96128.59;;;25.36;31.60
79203;BME280;68630;42.748;23.278;2023-10-13T06:58:19;96121.75;;;24.72;32.63
79203;BME280;68630;42.748;23.278;2023-10-13T07:00:50;96113.13;;;24.99;32.61
79203;BME280;68630;42.748;23.278;2023-10-13T07:03:23;96106.91;;;25.45;31.60
79203;BME280;68630;42.748;23.278;2023-10-13T07:05:52;96108.88;;;26.52;30.22
79203;BME280;68630;42.748;23.278;2023-10-13T07:08:22;96108.16;;;27.82;28.52
79203;BME280;68630;42.748;23.278;2023-10-13T07:10:53;96107.10;;;28.17;27.62
79203;BME280;68630;42.748;23.278;2023-10-13T07:13:34;96119.80;;;28.58;27.44
79203;BME280;68630;42.748;23.278;2023-10-13T07:16:06;96118.19;;;28.50;27.26
79203;BME280;68630;42.748;23.278;2023-10-13T07:18:41;96119.20;;;28.95;26.72
79203;BME280;68630;42.748;23.278;2023-10-13T07:21:19;96115.33;;;30.14;25.20
79203;BME280;68630;42.748;23.278;2023-10-13T07:23:54;96115.88;;;30.63;24.44
79203;BME280;68630;42.748;23.278;2023-10-13T07:26:30;96106.60;;;31.07;23.79
79203;BME280;68630;42.748;23.278;2023-10-13T07:29:01;96110.14;;;31.05;24.09
79203;BME280;68630;42.748;23.278;2023-10-13T07:31:29;96114.20;;;31.03;23.80
79203;BME280;68630;42.748;23.278;2023-10-13T07:33:57;96105.98;;;27.56;27.62
79203;BME280;68630;42.748;23.278;2023-10-13T07:36:26;96109.58;;;27.66;27.48
79203;BME280;68630;42.748;23.278;2023-10-13T07:39:01;96101.30;;;29.02;26.23
79203;BME280;68630;42.748;23.278;2023-10-13T07:41:39;96094.48;;;27.91;27.25
79203;BME280;68630;42.748;23.278;2023-10-13T07:44:08;96095.55;;;29.13;26.10
79203;BME280;68630;42.748;23.278;2023-10-13T07:46:38;96085.69;;;30.01;24.85
79203;BME280;68630;42.748;23.278;2023-10-13T07:49:05;96091.61;;;29.96;25.03
79203;BME280;68630;42.748;23.278;2023-10-13T07:51:37;96098.83;;;30.90;24.12
79203;BME280;68630;42.748;23.278;2023-10-13T07:54:13;96094.75;;;31.07;23.71
79203;BME280;68630;42.748;23.278;2023-10-13T07:56:40;96092.07;;;30.54;24.30
79203;BME280;68630;42.748;23.278;2023-10-13T07:59:08;96093.13;;;30.15;24.67
79203;BME280;68630;42.748;23.278;2023-10-13T08:01:36;96093.16;;;31.40;23.55
79203;BME280;68630;42.748;23.278;2023-10-13T08:04:05;96084.17;;;31.98;22.80
79203;BME280;68630;42.748;23.278;2023-10-13T08:06:40;96088.51;;;31.43;23.26
79203;BME280;68630;42.748;23.278;2023-10-13T08:09:09;96080.53;;;30.55;24.30
79203;BME280;68630;42.748;23.278;2023-10-13T08:11:39;96090.73;;;31.43;23.49
79203;BME280;68630;42.748;23.278;2023-10-13T08:14:07;96086.92;;;31.78;22.90
79203;BME280;68630;42.748;23.278;2023-10-13T08:16:40;96087.57;;;32.41;22.18
79203;BME280;68630;42.748;23.278;2023-10-13T08:19:22;96081.73;;;31.62;23.05
79203;BME280;68630;42.748;23.278;2023-10-13T08:22:02;96088.92;;;31.83;23.01
79203;BME280;68630;42.748;23.278;2023-10-13T08:24:47;96090.85;;;29.20;25.86
79203;BME280;68630;42.748;23.278;2023-10-13T08:27:21;96098.27;;;26.99;29.02
79203;BME280;68630;42.748;23.278;2023-10-13T08:30:01;96099.27;;;26.88;29.29
79203;BME280;68630;42.748;23.278;2023-10-13T08:32:40;96088.75;;;27.24;28.91
79203;BME280;68630;42.748;23.278;2023-10-13T08:35:24;96073.08;;;29.67;25.62
79203;BME280;68630;42.748;23.278;2023-10-13T08:37:56;96076.31;;;30.50;24.90
79203;BME280;68630;42.748;23.278;2023-10-13T08:40:30;96075.08;;;29.81;25.30
79203;BME280;68630;42.748;23.278;2023-10-13T08:43:15;96076.80;;;30.47;24.66
79203;BME280;68630;42.748;23.278;2023-10-13T08:45:43;96085.65;;;30.77;24.14
79203;BME280;68630;42.748;23.278;2023-10-13T08:48:13;96076.20;;;30.06;25.18
79203;BME280;68630;42.748;23.278;2023-10-13T08:53:29;96071.58;;;28.87;26.64
79203;BME280;68630;42.748;23.278;2023-10-13T08:56:08;96069.43;;;30.23;25.20
79203;BME280;68630;42.748;23.278;2023-10-13T08:58:38;96069.86;;;31.62;23.59
79203;BME280;68630;42.748;23.278;2023-10-13T09:01:27;96058.74;;;32.71;22.19
79203;BME280;68630;42.748;23.278;2023-10-13T09:04:10;96066.80;;;33.27;21.90
79203;BME280;68630;42.748;23.278;2023-10-13T09:06:56;96058.84;;;32.59;22.43
79203;BME280;68630;42.748;23.278;2023-10-13T09:09:29;96058.39;;;32.87;22.33
79203;BME280;68630;42.748;23.278;2023-10-13T09:12:18;96060.16;;;32.74;22.29
79203;BME280;68630;42.748;23.278;2023-10-13T09:14:54;96056.86;;;34.39;20.81
79203;BME280;68630;42.748;23.278;2023-10-13T09:17:29;96053.09;;;33.37;21.62
79203;BME280;68630;42.748;23.278;2023-10-13T09:20:09;96051.25;;;32.44;22.64
79203;BME280;68630;42.748;23.278;2023-10-13T09:22:54;96051.84;;;33.88;21.30
79203;BME280;68630;42.748;23.278;2023-10-13T09:25:32;96038.53;;;33.77;21.17
79203;BME280;68630;42.748;23.278;2023-10-13T09:28:03;96035.60;;;33.94;21.22
79203;BME280;68630;42.748;23.278;2023-10-13T09:30:55;96041.38;;;35.32;20.00
79203;BME280;68630;42.748;23.278;2023-10-13T09:33:04;96040.52;;;32.92;22.10
79203;BME280;68630;42.748;23.278;2023-10-13T09:35:39;96032.70;;;33.71;21.37
79203;BME280;68630;42.748;23.278;2023-10-13T09:38:06;96032.41;;;33.08;22.05
79203;BME280;68630;42.748;23.278;2023-10-13T09:40:35;96023.59;;;31.25;23.81
79203;BME280;68630;42.748;23.278;2023-10-13T09:43:05;96015.95;;;30.00;25.50
79203;BME280;68630;42.748;23.278;2023-10-13T09:45:35;96012.67;;;28.87;27.11
79203;BME280;68630;42.748;23.278;2023-10-13T09:48:21;96013.90;;;28.03;28.57
79203;BME280;68630;42.748;23.278;2023-10-13T09:50:37;96012.60;;;28.54;27.63
79203;BME280;68630;42.748;23.278;2023-10-13T09:53:10;96012.67;;;29.29;26.53
79203;BME280;68630;42.748;23.278;2023-10-13T09:55:46;96013.31;;;31.34;24.12
79203;BME280;68630;42.748;23.278;2023-10-13T09:58:15;96006.25;;;33.80;21.52
79203;BME280;68630;42.748;23.278;2023-10-13T10:00:52;95998.58;;;34.48;20.47
79203;BME280;68630;42.748;23.278;2023-10-13T10:03:27;95985.35;;;31.77;23.44
79203;BME280;68630;42.748;23.278;2023-10-13T10:06:03;95994.55;;;32.48;22.54
79203;BME280;68630;42.748;23.278;2023-10-13T10:08:36;95984.02;;;32.92;22.06
79203;BME280;68630;42.748;23.278;2023-10-13T10:11:17;95984.39;;;33.36;21.55
79203;BME280;68630;42.748;23.278;2023-10-13T10:13:47;95984.25;;;34.61;19.75
79203;BME280;68630;42.748;23.278;2023-10-13T10:16:15;95980.95;;;32.89;21.64
79203;BME280;68630;42.748;23.278;2023-10-13T10:18:58;95978.84;;;32.24;22.26
79203;BME280;68630;42.748;23.278;2023-10-13T10:21:15;95977.03;;;30.72;23.97
79203;BME280;68630;42.748;23.278;2023-10-13T10:23:52;95968.58;;;30.19;24.73
79203;BME280;68630;42.748;23.278;2023-10-13T10:26:16;95973.00;;;30.34;24.59
79203;BME280;68630;42.748;23.278;2023-10-13T10:28:45;95970.89;;;28.92;25.71
79203;BME280;68630;42.748;23.278;2023-10-13T10:31:15;95964.07;;;29.63;24.61
79203;BME280;68630;42.748;23.278;2023-10-13T10:33:53;95961.52;;;30.09;23.74
79203;BME280;68630;42.748;23.278;2023-10-13T10:36:30;95955.84;;;29.86;22.76
79203;BME280;68630;42.748;23.278;2023-10-13T10:39:05;95956.70;;;28.83;24.64
79203;BME280;68630;42.748;23.278;2023-10-13T10:41:33;95958.60;;;28.62;25.15
79203;BME280;68630;42.748;23.278;2023-10-13T10:44:12;95962.58;;;28.56;25.04
79203;BME280;68630;42.748;23.278;2023-10-13T10:46:43;95960.47;;;28.19;25.52
79203;BME280;68630;42.748;23.278;2023-10-13T10:49:23;95950.02;;;28.58;24.91
79203;BME280;68630;42.748;23.278;2023-10-13T10:52:02;95949.78;;;28.69;25.35
79203;BME280;68630;42.748;23.278;2023-10-13T10:54:32;95941.36;;;28.52;25.77
79203;BME280;68630;42.748;23.278;2023-10-13T10:57:01;95943.61;;;28.34;25.70
79203;BME280;68630;42.748;23.278;2023-10-13T10:59:39;95946.02;;;27.84;26.23
79203;BME280;68630;42.748;23.278;2023-10-13T11:02:11;95938.91;;;28.32;25.68
79203;BME280;68630;42.748;23.278;2023-10-13T11:04:43;95942.02;;;27.87;25.91
79203;BME280;68630;42.748;23.278;2023-10-13T11:07:22;95937.45;;;27.53;26.25
79203;BME280;68630;42.748;23.278;2023-10-13T11:09:52;95930.45;;;27.38;25.87
79203;BME280;68630;42.748;23.278;2023-10-13T11:12:21;95925.16;;;27.99;25.17
79203;BME280;68630;42.748;23.278;2023-10-13T11:15:04;95929.94;;;27.67;26.10
79203;BME280;68630;42.748;23.278;2023-10-13T11:17:38;95922.89;;;28.26;25.37
79203;BME280;68630;42.748;23.278;2023-10-13T11:20:12;95916.47;;;28.63;24.94
79203;BME280;68630;42.748;23.278;2023-10-13T11:22:48;95918.01;;;27.52;25.88
79203;BME280;68630;42.748;23.278;2023-10-13T11:25:25;95917.39;;;27.87;25.81
79203;BME280;68630;42.748;23.278;2023-10-13T11:28:12;95910.38;;;28.39;25.25
79203;BME280;68630;42.748;23.278;2023-10-13T11:30:50;95913.53;;;28.46;25.04
79203;BME280;68630;42.748;23.278;2023-10-13T11:33:18;95908.66;;;28.27;24.84
79203;BME280;68630;42.748;23.278;2023-10-13T11:35:48;95905.78;;;27.36;25.65
79203;BME280;68630;42.748;23.278;2023-10-13T11:38:16;95907.53;;;26.70;27.19
79203;BME280;68630;42.748;23.278;2023-10-13T11:40:45;95904.33;;;27.33;26.38
79203;BME280;68630;42.748;23.278;2023-10-13T11:43:15;95903.70;;;27.22;26.06
79203;BME280;68630;42.748;23.278;2023-10-13T11:45:47;95897.20;;;27.41;26.01
79203;BME280;68630;42.748;23.278;2023-10-13T11:48:33;95893.55;;;27.75;25.69
79203;BME280;68630;42.748;23.278;2023-10-13T11:51:05;95889.05;;;27.81;25.33
79203;BME280;68630;42.748;23.278;2023-10-13T11:53:36;95883.66;;;28.02;25.35
79203;BME280;68630;42.748;23.278;2023-10-13T11:56:05;95884.54;;;27.47;26.01
79203;BME280;68630;42.748;23.278;2023-10-13T11:58:37;95883.40;;;27.45;26.25
79203;BME280;68630;42.748;23.278;2023-10-13T12:01:05;95881.86;;;27.68;25.48
79203;BME280;68630;42.748;23.278;2023-10-13T12:03:41;95878.36;;;27.70;25.75
79203;BME280;68630;42.748;23.278;2023-10-13T12:06:28;95880.03;;;27.62;25.77
79203;BME280;68630;42.748;23.278;2023-10-13T12:09:08;95870.74;;;27.26;26.14
79203;BME280;68630;42.748;23.278;2023-10-13T12:11:49;95868.96;;;27.29;25.95
79203;BME280;68630;42.748;23.278;2023-10-13T12:14:19;95865.74;;;27.04;26.49
79203;BME280;68630;42.748;23.278;2023-10-13T12:16:49;95861.70;;;26.98;26.26
79203;BME280;68630;42.748;23.278;2023-10-13T12:19:23;95859.64;;;27.02;26.25
79203;BME280;68630;42.748;23.278;2023-10-13T12:21:51;95857.07;;;26.98;26.35
79203;BME280;68630;42.748;23.278;2023-10-13T12:24:22;95859.22;;;27.15;26.13
79203;BME280;68630;42.748;23.278;2023-10-13T12:26:53;95864.20;;;27.18;26.02
79203;BME280;68630;42.748;23.278;2023-10-13T12:29:23;95854.85;;;27.32;25.96
79203;BME280;68630;42.748;23.278;2023-10-13T12:31:53;95853.95;;;27.04;26.28
79203;BME280;68630;42.748;23.278;2023-10-13T12:34:38;95855.67;;;26.80;26.92
79203;BME280;68630;42.748;23.278;2023-10-13T12:37:24;95860.20;;;26.67;27.26
79203;BME280;68630;42.748;23.278;2023-10-13T12:40:17;95844.67;;;26.61;26.90
79203;BME280;68630;42.748;23.278;2023-10-13T12:43:03;95847.53;;;26.64;27.36
79203;BME280;68630;42.748;23.278;2023-10-13T12:45:49;95852.16;;;26.63;27.22
79203;BME280;68630;42.748;23.278;2023-10-13T12:48:36;95852.01;;;26.67;26.90
79203;BME280;68630;42.748;23.278;2023-10-13T12:51:21;95846.71;;;26.72;26.77
79203;BME280;68630;42.748;23.278;2023-10-13T12:53:56;95846.27;;;26.76;26.83
79203;BME280;68630;42.748;23.278;2023-10-13T12:56:28;95845.41;;;26.66;27.16
79203;BME280;68630;42.748;23.278;2023-10-13T12:58:56;95844.14;;;26.68;27.07
79203;BME280;68630;42.748;23.278;2023-10-13T13:01:25;95841.25;;;26.72;27.00
79203;BME280;68630;42.748;23.278;2023-10-13T13:03:54;95829.95;;;26.69;27.22
79203;BME280;68630;42.748;23.278;2023-10-13T13:06:26;95834.58;;;26.68;26.87
79203;BME280;68630;42.748;23.278;2023-10-13T13:08:59;95830.61;;;26.64;26.61
79203;BME280;68630;42.748;23.278;2023-10-13T13:11:27;95835.11;;;26.61;26.40
79203;BME280;68630;42.748;23.278;2023-10-13T13:13:57;95827.95;;;26.42;26.45
79203;BME280;68630;42.748;23.278;2023-10-13T13:16:25;95829.85;;;26.41;26.71
79203;BME280;68630;42.748;23.278;2023-10-13T13:18:56;95835.97;;;26.37;26.55
79203;BME280;68630;42.748;23.278;2023-10-13T13:21:24;95834.28;;;26.35;26.71
79203;BME280;68630;42.748;23.278;2023-10-13T13:23:51;95832.19;;;26.38;26.80
79203;BME280;68630;42.748;23.278;2023-10-13T13:26:22;95834.06;;;26.37;26.81
79203;BME280;68630;42.748;23.278;2023-10-13T13:28:50;95834.70;;;26.39;26.94
79203;BME280;68630;42.748;23.278;2023-10-13T13:31:18;95820.52;;;26.40;27.54
79203;BME280;68630;42.748;23.278;2023-10-13T13:33:48;95825.91;;;26.21;27.39
79203;BME280;68630;42.748;23.278;2023-10-13T13:36:16;95824.11;;;26.24;27.31
79203;BME280;68630;42.748;23.278;2023-10-13T13:38:45;95821.16;;;26.26;27.40
79203;BME280;68630;42.748;23.278;2023-10-13T13:41:15;95821.70;;;26.25;27.56
79203;BME280;68630;42.748;23.278;2023-10-13T13:43:47;95820.08;;;26.27;27.33
79203;BME280;68630;42.748;23.278;2023-10-13T13:46:26;95824.16;;;26.18;26.80
79203;BME280;68630;42.748;23.278;2023-10-13T13:48:56;95825.20;;;26.16;26.77
79203;BME280;68630;42.748;23.278;2023-10-13T13:51:28;95820.55;;;26.08;26.93
79203;BME280;68630;42.748;23.278;2023-10-13T13:53:57;95830.48;;;26.11;26.71
79203;BME280;68630;42.748;23.278;2023-10-13T13:56:26;95828.29;;;26.11;26.66
79203;BME280;68630;42.748;23.278;2023-10-13T13:58:55;95826.75;;;26.06;26.94
79203;BME280;68630;42.748;23.278;2023-10-13T14:01:23;95833.11;;;26.00;26.86
79203;BME280;68630;42.748;23.278;2023-10-13T14:03:54;95830.06;;;25.98;26.74
79203;BME280;68630;42.748;23.278;2023-10-13T14:06:26;95831.74;;;26.00;26.03
79203;BME280;68630;42.748;23.278;2023-10-13T14:08:58;95829.95;;;25.96;26.23
79203;BME280;68630;42.748;23.278;2023-10-13T14:11:32;95825.97;;;25.98;26.39
79203;BME280;68630;42.748;23.278;2023-10-13T14:14:13;95833.72;;;26.02;26.34
79203;BME280;68630;42.748;23.278;2023-10-13T14:16:43;95830.45;;;26.02;26.30
79203;BME280;68630;42.748;23.278;2023-10-13T14:19:17;95833.11;;;26.00;26.35
79203;BME280;68630;42.748;23.278;2023-10-13T14:21:54;95826.52;;;25.91;26.76
79203;BME280;68630;42.748;23.278;2023-10-13T14:24:24;95831.64;;;25.90;26.75
79203;BME280;68630;42.748;23.278;2023-10-13T14:26:55;95827.81;;;25.82;26.74
79203;BME280;68630;42.748;23.278;2023-10-13T14:29:23;95832.00;;;25.69;27.45
79203;BME280;68630;42.748;23.278;2023-10-13T14:31:52;95833.79;;;25.66;27.35
79203;BME280;68630;42.748;23.278;2023-10-13T14:34:21;95831.27;;;25.48;27.52
79203;BME280;68630;42.748;23.278;2023-10-13T14:36:50;95828.00;;;25.49;27.78
79203;BME280;68630;42.748;23.278;2023-10-13T14:39:20;95837.24;;;25.41;27.95
79203;BME280;68630;42.748;23.278;2023-10-13T14:41:47;95837.24;;;25.41;28.23
79203;BME280;68630;42.748;23.278;2023-10-13T14:44:15;95836.20;;;25.42;27.92
79203;BME280;68630;42.748;23.278;2023-10-13T14:46:48;95832.12;;;25.42;27.78
79203;BME280;68630;42.748;23.278;2023-10-13T14:49:16;95828.59;;;25.35;27.68
79203;BME280;68630;42.748;23.278;2023-10-13T14:51:45;95825.35;;;25.29;27.72
79203;BME280;68630;42.748;23.278;2023-10-13T14:54:12;95825.27;;;25.26;27.92
79203;BME280;68630;42.748;23.278;2023-10-13T14:56:41;95830.81;;;25.15;28.64
79203;BME280;68630;42.748;23.278;2023-10-13T14:59:11;95824.77;;;25.07;29.08
79203;BME280;68630;42.748;23.278;2023-10-13T15:01:41;95825.75;;;24.90;29.36
79203;BME280;68630;42.748;23.278;2023-10-13T15:04:09;95816.16;;;24.80;29.43
79203;BME280;68630;42.748;23.278;2023-10-13T15:06:36;95817.93;;;24.77;29.64
79203;BME280;68630;42.748;23.278;2023-10-13T15:09:07;95818.48;;;24.57;30.09
79203;BME280;68630;42.748;23.278;2023-10-13T15:11:38;95825.38;;;24.53;30.38
79203;BME280;68630;42.748;23.278;2023-10-13T15:14:06;95831.44;;;24.41;30.46
79203;BME280;68630;42.748;23.278;2023-10-13T15:16:38;95827.89;;;24.34;30.55
79203;BME280;68630;42.748;23.278;2023-10-13T15:19:07;95832.50;;;24.27;30.49
79203;BME280;68630;42.748;23.278;2023-10-13T15:21:36;95836.66;;;24.23;30.45
79203;BME280;68630;42.748;23.278;2023-10-13T15:24:07;95839.91;;;24.16;30.53
79203;BME280;68630;42.748;23.278;2023-10-13T15:26:45;95840.02;;;24.05;30.40
79203;BME280;68630;42.748;23.278;2023-10-13T15:29:16;95839.67;;;23.97;30.45
79203;BME280;68630;42.748;23.278;2023-10-13T15:31:45;95835.48;;;23.88;30.66